createdAt,value
2018-05-10T00:01:21.728Z,6.03
2018-05-10T00:03:48.628Z,6.12
2018-05-10T00:06:14.554Z,6.40
2018-05-10T00:08:43.489Z,6.15
2018-05-10T00:11:09.468Z,5.35
2018-05-10T00:13:38.359Z,3.28
2018-05-10T00:16:04.348Z,2.33
2018-05-10T00:18:30.293Z,2.42
2018-05-10T00:20:56.274Z,2.50
2018-05-10T00:23:22.212Z,2.78
2018-05-10T00:25:49.784Z,2.90
2018-05-10T00:28:15.761Z,2.80
2018-05-10T00:30:44.853Z,2.80
2018-05-10T00:33:10.801Z,2.70
2018-05-10T00:35:39.612Z,3.20
2018-05-10T00:38:06.919Z,2.90
2018-05-10T00:40:34.294Z,2.85
2018-05-10T00:43:00.240Z,2.90
2018-05-10T00:45:30.014Z,2.53
2018-05-10T00:47:55.958Z,2.95
2018-05-10T00:50:23.888Z,3.10
2018-05-10T00:52:49.870Z,2.70
2018-05-10T00:55:15.844Z,2.95
2018-05-10T00:57:41.757Z,2.62
2018-05-10T01:00:07.697Z,3.25
2018-05-10T01:02:35.312Z,2.90
2018-05-10T01:05:01.213Z,3.50
2018-05-10T01:07:31.173Z,3.20
2018-05-10T01:09:57.092Z,2.90
2018-05-10T01:12:26.148Z,2.37
2018-05-10T01:14:52.595Z,3.30
2018-05-10T01:17:20.144Z,3.20
2018-05-10T01:19:46.102Z,3.83
2018-05-10T01:22:15.123Z,3.12
2018-05-10T01:24:44.630Z,3.33
2018-05-10T01:27:10.624Z,4.10
2018-05-10T01:29:36.570Z,3.70
2018-05-10T01:32:02.519Z,3.57
2018-05-10T01:34:28.458Z,3.20
2018-05-10T01:36:54.423Z,3.60
2018-05-10T01:39:20.359Z,3.60
2018-05-10T01:41:46.275Z,4.27
2018-05-10T01:44:15.225Z,3.90
2018-05-10T01:46:41.154Z,3.70
2018-05-10T01:49:11.381Z,4.50
2018-05-10T01:51:37.327Z,3.62
2018-05-10T01:54:06.405Z,5.37
2018-05-10T01:56:32.332Z,4.22
2018-05-10T01:58:59.528Z,5.40
2018-05-10T02:01:25.480Z,6.78
2018-05-10T02:03:54.645Z,6.70
2018-05-10T02:06:20.598Z,6.07
2018-05-10T02:08:46.548Z,6.70
2018-05-10T02:11:12.441Z,5.90
2018-05-10T02:13:38.356Z,6.45
2018-05-10T02:16:05.684Z,7.20
2018-05-10T02:18:31.590Z,7.50
2018-05-10T02:21:00.878Z,7.78
2018-05-10T02:23:26.802Z,7.60
2018-05-10T02:25:55.759Z,7.20
2018-05-10T02:28:21.716Z,7.93
2018-05-10T02:30:51.321Z,8.43
2018-05-10T02:33:17.241Z,7.50
2018-05-10T02:35:46.272Z,8.80
2018-05-10T02:38:12.277Z,9.50
2018-05-10T02:40:40.024Z,7.82
2018-05-10T02:43:05.991Z,8.10
2018-05-10T02:45:31.923Z,9.10
2018-05-10T02:47:57.883Z,8.95
2018-05-10T02:50:23.803Z,8.43
2018-05-10T02:52:50.973Z,9.48
2018-05-10T02:55:16.936Z,8.75
2018-05-10T02:57:45.860Z,8.43
2018-05-10T03:00:11.783Z,8.38
2018-05-10T03:02:40.768Z,9.30
2018-05-10T03:05:06.686Z,8.98
2018-05-10T03:07:35.644Z,9.20
2018-05-10T03:10:01.574Z,8.60
2018-05-10T03:12:30.493Z,8.03
2018-05-10T03:15:00.843Z,8.45
2018-05-10T03:17:26.793Z,8.17
2018-05-10T03:19:52.723Z,8.07
2018-05-10T03:22:18.651Z,7.60
2018-05-10T03:24:44.590Z,7.68
2018-05-10T03:27:10.507Z,8.68
2018-05-10T03:29:36.416Z,9.27
2018-05-10T03:32:02.396Z,8.50
2018-05-10T03:34:31.729Z,7.67
2018-05-10T03:36:57.711Z,9.75
2018-05-10T03:39:27.524Z,9.20
2018-05-10T03:41:53.456Z,9.20
2018-05-10T03:44:20.526Z,8.63
2018-05-10T03:46:46.451Z,8.70
2018-05-10T03:49:16.344Z,9.80
2018-05-10T03:51:42.286Z,10.18
2018-05-10T03:54:11.500Z,10.68
2018-05-10T03:56:37.418Z,10.13
2018-05-10T03:59:03.334Z,11.20
2018-05-10T04:01:29.223Z,11.55
2018-05-10T04:04:07.365Z,10.70
2018-05-10T04:06:45.574Z,13.70
2018-05-10T04:09:23.935Z,12.37
2018-05-10T04:11:49.842Z,12.10
2018-05-10T04:14:15.777Z,11.88
2018-05-10T04:16:41.773Z,11.10
2018-05-10T04:19:07.672Z,12.00
2018-05-10T04:21:33.631Z,11.10
2018-05-10T04:23:59.538Z,10.65
2018-05-10T04:26:25.504Z,12.20
2018-05-10T04:28:51.450Z,10.48
2018-05-10T04:31:17.334Z,12.37
2018-05-10T04:33:43.731Z,11.95
2018-05-10T04:36:09.653Z,11.73
2018-05-10T04:38:35.603Z,12.40
2018-05-10T04:41:01.571Z,12.80
2018-05-10T04:43:27.562Z,12.32
2018-05-10T04:45:53.500Z,12.80
2018-05-10T04:48:19.448Z,11.50
2018-05-10T04:50:45.378Z,11.90
2018-05-10T04:53:11.308Z,12.90
2018-05-10T04:55:37.277Z,12.53
2018-05-10T04:58:03.242Z,13.82
2018-05-10T05:00:29.148Z,14.00
2018-05-10T05:02:55.079Z,14.80
2018-05-10T05:05:21.010Z,14.05
2018-05-10T05:07:46.952Z,13.43
2018-05-10T05:10:26.310Z,12.50
2018-05-10T05:12:52.240Z,11.95
2018-05-10T05:15:18.158Z,11.77
2018-05-10T05:17:44.153Z,10.77
2018-05-10T05:20:10.075Z,11.40
2018-05-10T05:22:36.034Z,12.40
2018-05-10T05:25:02.016Z,10.80
2018-05-10T05:27:27.992Z,10.40
2018-05-10T05:29:53.925Z,10.55
2018-05-10T05:32:19.870Z,10.35
2018-05-10T05:34:45.798Z,10.75
2018-05-10T05:37:11.796Z,11.95
2018-05-10T05:39:37.818Z,10.90
2018-05-10T05:42:03.741Z,11.00
2018-05-10T05:44:29.678Z,11.02
2018-05-10T05:46:55.622Z,6.60
2018-05-10T05:49:21.548Z,6.13
2018-05-10T05:51:47.529Z,6.33
2018-05-10T05:54:13.528Z,7.05
2018-05-10T05:56:39.436Z,7.55
2018-05-10T05:59:05.340Z,6.70
2018-05-10T06:01:32.852Z,6.87
2018-05-10T06:03:58.848Z,8.00
2018-05-10T06:06:28.678Z,8.45
2018-05-10T06:08:54.625Z,8.35
2018-05-10T06:11:22.518Z,9.23
2018-05-10T06:13:48.452Z,8.05
2018-05-10T06:16:16.847Z,7.55
2018-05-10T06:18:42.786Z,8.40
2018-05-10T06:21:12.841Z,9.25
2018-05-10T06:23:38.758Z,8.45
2018-05-10T06:26:04.660Z,8.50
2018-05-10T06:28:30.562Z,9.43
2018-05-10T06:30:56.474Z,6.80
2018-05-10T06:33:23.271Z,6.80
2018-05-10T06:35:49.184Z,6.80
2018-05-10T06:38:19.084Z,5.73
2018-05-10T06:40:45.039Z,7.30
2018-05-10T06:43:12.851Z,7.40
2018-05-10T06:45:38.824Z,7.30
2018-05-10T06:48:08.789Z,7.75
2018-05-10T06:50:34.800Z,7.80
2018-05-10T06:53:02.735Z,8.50
2018-05-10T06:55:28.939Z,8.80
2018-05-10T06:57:56.882Z,8.60
2018-05-10T07:00:22.950Z,10.35
2018-05-10T07:02:48.940Z,9.48
2018-05-10T07:05:14.987Z,10.00
2018-05-10T07:07:41.156Z,9.93
2018-05-10T07:10:09.150Z,10.52
2018-05-10T07:12:35.164Z,12.45
2018-05-10T07:15:03.256Z,15.38
2018-05-10T07:17:29.401Z,13.02
2018-05-10T07:19:59.126Z,11.60
2018-05-10T07:22:25.119Z,10.17
2018-05-10T07:24:52.886Z,8.50
2018-05-10T07:27:19.013Z,8.90
2018-05-10T07:29:48.429Z,10.50
2018-05-10T07:32:14.410Z,7.90
2018-05-10T07:34:43.504Z,8.93
2018-05-10T07:37:09.500Z,7.32
2018-05-10T07:39:35.586Z,7.27
2018-05-10T07:42:01.633Z,7.80
2018-05-10T07:44:27.581Z,9.23
2018-05-10T07:46:53.673Z,8.15
2018-05-10T07:49:19.733Z,8.57
2018-05-10T07:51:48.600Z,9.60
2018-05-10T07:54:14.592Z,8.80
2018-05-10T07:56:43.376Z,9.05
2018-05-10T07:59:09.309Z,54.05
2018-05-10T08:01:38.038Z,17.75
2018-05-10T08:04:04.136Z,9.77
2018-05-10T08:06:33.770Z,8.25
2018-05-10T08:08:59.768Z,8.77
2018-05-10T08:11:28.887Z,9.40
2018-05-10T08:13:54.783Z,8.75
2018-05-10T08:16:20.732Z,8.32
2018-05-10T08:18:46.838Z,8.43
2018-05-10T08:21:12.774Z,9.40
2018-05-10T08:23:46.954Z,9.70
2018-05-10T08:26:12.938Z,7.22
2018-05-10T08:28:38.900Z,8.30
2018-05-10T08:31:04.965Z,6.93
2018-05-10T08:33:30.894Z,7.87
2018-05-10T08:35:56.927Z,6.93
2018-05-10T08:38:22.999Z,6.37
2018-05-10T08:40:48.999Z,6.12
2018-05-10T08:43:18.726Z,7.13
2018-05-10T08:45:44.774Z,6.53
2018-05-10T08:48:12.791Z,5.62
2018-05-10T08:50:38.782Z,3.58
2018-05-10T08:53:04.744Z,3.90
2018-05-10T08:55:30.680Z,3.87
2018-05-10T08:57:56.788Z,3.72
2018-05-10T09:00:26.051Z,5.40
2018-05-10T09:02:51.995Z,5.07
2018-05-10T09:05:19.106Z,5.43
2018-05-10T09:07:45.051Z,4.90
2018-05-10T09:10:14.937Z,6.00
2018-05-10T09:12:40.899Z,21.63
2018-05-10T09:15:08.316Z,7.82
2018-05-10T09:17:35.286Z,6.10
2018-05-10T09:20:04.441Z,6.68
2018-05-10T09:22:30.580Z,7.25
2018-05-10T09:24:58.650Z,6.80
2018-05-10T09:27:24.716Z,7.10
2018-05-10T09:29:50.659Z,7.90
2018-05-10T09:32:16.606Z,7.78
2018-05-10T09:34:42.553Z,7.85
2018-05-10T09:37:09.867Z,7.97
2018-05-10T09:39:35.869Z,7.60
2018-05-10T09:42:04.751Z,7.70
2018-05-10T09:44:30.668Z,8.38
2018-05-10T09:46:59.718Z,8.30
2018-05-10T09:49:25.640Z,7.60
2018-05-10T09:51:55.566Z,8.07
2018-05-10T09:54:21.553Z,7.80
2018-05-10T09:56:48.509Z,6.22
2018-05-10T09:59:14.458Z,6.20
2018-05-10T10:01:43.300Z,6.87
2018-05-10T10:04:09.268Z,6.87
2018-05-10T10:06:35.206Z,5.82
2018-05-10T10:09:01.193Z,6.00
2018-05-10T10:11:27.107Z,4.40
2018-05-10T10:13:54.828Z,3.50
2018-05-10T10:16:20.794Z,3.60
2018-05-10T10:18:49.526Z,3.50
2018-05-10T10:21:15.433Z,3.33
2018-05-10T10:23:44.260Z,2.80
2018-05-10T10:26:10.202Z,2.92
2018-05-10T10:28:39.244Z,3.10
2018-05-10T10:31:05.195Z,2.80
2018-05-10T10:33:34.750Z,3.00
2018-05-10T10:36:00.735Z,3.30
2018-05-10T10:38:29.764Z,3.20
2018-05-10T10:40:59.404Z,2.55
2018-05-10T10:43:25.358Z,2.80
2018-05-10T10:45:51.323Z,2.70
2018-05-10T10:48:17.251Z,2.45
2018-05-10T10:50:43.202Z,2.90
2018-05-10T10:53:09.116Z,3.42
2018-05-10T10:55:35.084Z,3.40
2018-05-10T10:58:01.106Z,3.20
2018-05-10T11:00:29.823Z,2.75
2018-05-10T11:02:55.818Z,2.80
2018-05-10T11:05:25.362Z,15.90
2018-05-10T11:07:51.309Z,3.05
2018-05-10T11:10:20.271Z,2.90
2018-05-10T11:12:46.204Z,2.70
2018-05-10T11:15:15.284Z,2.55
2018-05-10T11:17:41.264Z,3.00
2018-05-10T11:20:07.201Z,2.33
2018-05-10T11:22:33.188Z,2.90
2018-05-10T11:24:59.131Z,4.50
2018-05-10T11:27:25.476Z,2.92
2018-05-10T11:29:51.385Z,2.30
2018-05-10T11:32:21.045Z,2.70
2018-05-10T11:34:46.980Z,2.47
2018-05-10T11:37:16.352Z,3.10
2018-05-10T11:39:42.294Z,3.17
2018-05-10T11:42:11.239Z,3.00
2018-05-10T11:44:37.189Z,3.35
2018-05-10T11:47:04.259Z,2.80
2018-05-10T11:49:30.192Z,3.30
2018-05-10T11:52:03.011Z,3.00
2018-05-10T11:54:28.950Z,3.45
2018-05-10T11:56:54.919Z,3.40
2018-05-10T11:59:20.830Z,3.40
2018-05-10T12:01:46.782Z,3.70
2018-05-10T12:04:12.732Z,3.55
2018-05-10T12:06:38.686Z,4.15
2018-05-10T12:09:06.277Z,4.78
2018-05-10T12:11:32.274Z,4.30
2018-05-10T12:14:01.950Z,4.30
2018-05-10T12:16:27.892Z,4.60
2018-05-10T12:18:55.646Z,3.93
2018-05-10T12:21:21.600Z,4.20
2018-05-10T12:23:51.372Z,4.12
2018-05-10T12:26:17.364Z,3.30
2018-05-10T12:28:45.123Z,2.80
2018-05-10T12:31:11.119Z,11.10
2018-05-10T12:33:37.035Z,8.55
2018-05-10T12:36:03.008Z,2.90
2018-05-10T12:38:28.907Z,2.85
2018-05-10T12:40:56.740Z,3.10
2018-05-10T12:43:22.734Z,2.30
2018-05-10T12:45:52.535Z,2.45
2018-05-10T12:48:18.500Z,1.70
2018-05-10T12:50:46.187Z,1.65
2018-05-10T12:53:12.090Z,1.37
2018-05-10T12:55:42.127Z,1.20
2018-05-10T12:58:08.103Z,0.70
2018-05-10T13:00:35.826Z,0.80
2018-05-10T13:03:01.733Z,0.70
2018-05-10T13:05:31.436Z,0.80
2018-05-10T13:07:57.400Z,0.60
2018-05-10T13:10:23.282Z,0.70
2018-05-10T13:12:49.219Z,0.70
2018-05-10T13:15:15.124Z,0.70
2018-05-10T13:17:41.797Z,0.70
2018-05-10T13:20:07.750Z,0.80
2018-05-10T13:22:37.653Z,0.70
2018-05-10T13:25:03.607Z,0.70
2018-05-10T13:27:31.403Z,0.70
2018-05-10T13:29:57.383Z,0.80
2018-05-10T13:32:26.323Z,1.10
2018-05-10T13:34:52.269Z,1.00
2018-05-10T13:37:21.436Z,1.20
2018-05-10T13:39:47.403Z,1.10
2018-05-10T13:42:16.376Z,1.50
2018-05-10T13:44:42.469Z,1.50
2018-05-10T13:47:08.424Z,1.70
2018-05-10T13:49:34.385Z,2.90
2018-05-10T13:52:00.328Z,3.85
2018-05-10T13:54:26.964Z,5.60
2018-05-10T13:56:52.899Z,7.00
2018-05-10T13:59:22.740Z,6.80
2018-05-10T14:01:48.699Z,7.30
2018-05-10T14:04:18.034Z,6.40
2018-05-10T14:06:43.976Z,7.18
2018-05-10T14:09:10.972Z,6.43
2018-05-10T14:11:36.953Z,6.72
2018-05-10T14:14:06.712Z,5.68
2018-05-10T14:16:32.656Z,5.10
2018-05-10T14:19:01.984Z,5.53
2018-05-10T14:21:27.908Z,4.20
2018-05-10T14:23:53.914Z,4.30
2018-05-10T14:26:19.911Z,4.00
2018-05-10T14:28:45.866Z,3.80
2018-05-10T14:31:11.947Z,3.87
2018-05-10T14:33:37.893Z,3.80
2018-05-10T14:36:06.853Z,4.10
2018-05-10T14:38:32.803Z,4.45
2018-05-10T14:41:02.296Z,4.50
2018-05-10T14:43:30.044Z,5.75
2018-05-10T14:45:56.512Z,9.95
2018-05-10T14:48:22.477Z,5.45
2018-05-10T14:50:51.314Z,5.30
2018-05-10T14:53:17.255Z,5.22
2018-05-10T14:55:46.111Z,4.62
2018-05-10T14:58:12.063Z,5.07
2018-05-10T15:00:37.960Z,4.10
2018-05-10T15:03:03.928Z,4.40
2018-05-10T15:05:31.690Z,4.50
2018-05-10T15:07:57.618Z,4.00
2018-05-10T15:10:23.520Z,3.28
2018-05-10T15:12:52.281Z,3.10
2018-05-10T15:15:18.246Z,2.62
2018-05-10T15:17:47.256Z,2.60
2018-05-10T15:20:13.176Z,2.85
2018-05-10T15:22:42.605Z,2.42
2018-05-10T15:25:08.511Z,3.03
2018-05-10T15:27:40.398Z,3.23
2018-05-10T15:31:34.199Z,3.10
2018-05-10T15:34:00.295Z,3.45
2018-05-10T15:36:26.245Z,2.50
2018-05-10T15:38:52.185Z,3.20
2018-05-10T15:41:18.139Z,2.40
2018-05-10T15:43:44.102Z,2.70
2018-05-10T15:46:10.034Z,2.50
2018-05-10T15:48:35.988Z,2.50
2018-05-10T15:51:01.991Z,2.65
2018-05-10T15:53:27.997Z,2.90
2018-05-10T15:55:53.958Z,2.58
2018-05-10T15:58:19.952Z,2.40
2018-05-10T16:00:45.897Z,2.90
2018-05-10T16:03:11.802Z,2.97
2018-05-10T16:05:37.732Z,3.30
2018-05-10T16:08:03.677Z,3.33
2018-05-10T16:10:29.622Z,3.78
2018-05-10T16:12:55.562Z,3.85
2018-05-10T16:15:22.907Z,3.80
2018-05-10T16:17:48.896Z,4.65
2018-05-10T16:20:17.829Z,3.97
2018-05-10T16:22:43.713Z,4.20
2018-05-10T16:25:13.092Z,4.70
2018-05-10T16:27:39.026Z,4.95
2018-05-10T16:30:06.225Z,4.47
2018-05-10T16:32:32.192Z,4.60
2018-05-10T16:34:58.167Z,4.40
2018-05-10T16:37:24.088Z,4.47
2018-05-10T16:39:50.055Z,4.53
2018-05-10T16:42:18.051Z,5.12
2018-05-10T16:44:43.989Z,5.05
2018-05-10T16:47:13.693Z,4.60
2018-05-10T16:49:39.628Z,4.78
2018-05-10T16:52:08.607Z,5.30
2018-05-10T16:54:34.528Z,5.12
2018-05-10T16:57:03.664Z,4.60
2018-05-10T16:59:29.573Z,5.00
2018-05-10T17:01:57.451Z,4.40
2018-05-10T17:04:23.385Z,5.30
2018-05-10T17:06:52.454Z,5.25
2018-05-10T17:09:18.410Z,4.43
2018-05-10T17:11:44.362Z,5.15
2018-05-10T17:14:10.322Z,4.95
2018-05-10T17:16:36.289Z,4.72
2018-05-10T17:19:03.577Z,4.53
2018-05-10T17:21:29.504Z,4.70
2018-05-10T17:23:59.208Z,4.10
2018-05-10T17:26:25.124Z,4.43
2018-05-10T17:28:54.587Z,4.55
2018-05-10T17:31:20.537Z,4.40
2018-05-10T17:33:49.681Z,4.03
2018-05-10T17:36:15.652Z,5.07
2018-05-10T17:38:42.630Z,4.40
2018-05-10T17:41:08.672Z,4.15
2018-05-10T17:43:37.709Z,4.40
2018-05-10T17:46:03.638Z,4.22
2018-05-10T17:48:29.660Z,3.87
2018-05-10T17:50:55.662Z,4.03
2018-05-10T17:53:21.601Z,4.28
2018-05-10T17:55:48.911Z,3.90
2018-05-10T17:58:14.838Z,3.87
2018-05-10T18:00:44.552Z,4.32
2018-05-10T18:03:10.516Z,3.50
2018-05-10T18:05:39.752Z,11.23
2018-05-10T18:08:05.693Z,4.37
2018-05-10T18:10:34.688Z,3.58
2018-05-10T18:13:00.644Z,4.05
2018-05-10T18:15:27.571Z,4.30
2018-05-10T18:18:01.991Z,3.20
2018-05-10T18:20:27.930Z,3.30
2018-05-10T18:22:53.885Z,3.78
2018-05-10T18:25:19.824Z,3.70
2018-05-10T18:27:45.748Z,3.60
2018-05-10T18:30:11.708Z,3.25
2018-05-10T18:32:37.640Z,2.90
2018-05-10T18:35:03.620Z,2.83
2018-05-10T18:37:29.692Z,3.05
2018-05-10T18:39:55.702Z,3.10
2018-05-10T18:42:28.687Z,3.08
2018-05-10T18:44:54.708Z,3.00
2018-05-10T18:47:21.169Z,3.92
2018-05-10T18:49:48.149Z,3.67
2018-05-10T18:52:14.167Z,3.20
2018-05-10T18:54:40.193Z,2.90
2018-05-10T18:57:07.622Z,3.50
2018-05-10T18:59:33.882Z,3.20
2018-05-10T19:02:00.011Z,3.55
2018-05-10T19:04:26.106Z,3.00
2018-05-10T19:06:52.103Z,3.42
2018-05-10T19:09:21.183Z,3.60
2018-05-10T19:11:47.107Z,3.60
2018-05-10T19:14:15.545Z,3.80
2018-05-10T19:16:41.573Z,3.70
2018-05-10T19:19:09.528Z,3.40
2018-05-10T19:21:38.989Z,3.72
2018-05-10T19:24:05.103Z,3.85
2018-05-10T19:26:31.151Z,3.55
2018-05-10T19:28:58.158Z,3.30
2018-05-10T19:31:24.089Z,3.63
2018-05-10T19:33:53.298Z,3.80
2018-05-10T19:36:19.214Z,3.60
2018-05-10T19:38:45.282Z,4.15
2018-05-10T19:41:11.287Z,3.80
2018-05-10T19:43:37.279Z,3.90
2018-05-10T19:46:05.392Z,4.00
2018-05-10T19:48:32.041Z,3.70
2018-05-10T19:50:59.392Z,3.62
2018-05-10T19:53:25.345Z,3.50
2018-05-10T19:55:54.562Z,3.70
2018-05-10T19:58:20.532Z,3.40
2018-05-10T20:00:49.984Z,4.00
2018-05-10T20:03:16.012Z,3.95
2018-05-10T20:05:45.279Z,5.35
2018-05-10T20:08:11.631Z,11.55
2018-05-10T20:10:39.134Z,4.55
2018-05-10T20:13:07.130Z,4.35
2018-05-10T20:15:33.126Z,3.83
2018-05-10T20:17:59.093Z,4.20
2018-05-10T20:20:25.045Z,4.00
2018-05-10T20:22:51.144Z,3.33
2018-05-10T20:25:17.240Z,3.78
2018-05-10T20:27:44.893Z,3.75
2018-05-10T20:30:10.941Z,4.10
2018-05-10T20:32:39.285Z,4.20
2018-05-10T20:35:05.310Z,4.10
2018-05-10T20:37:34.594Z,4.60
2018-05-10T20:40:01.018Z,4.78
2018-05-10T20:42:30.511Z,4.32
2018-05-10T20:44:56.447Z,4.72
2018-05-10T20:47:23.983Z,4.70
2018-05-10T20:49:49.897Z,4.65
2018-05-10T20:52:15.967Z,5.80
2018-05-10T20:54:41.992Z,3.95
2018-05-10T20:57:07.915Z,4.62
2018-05-10T20:59:35.606Z,4.10
2018-05-10T21:02:01.555Z,4.50
2018-05-10T21:04:30.800Z,5.18
2018-05-10T21:06:56.763Z,4.30
2018-05-10T21:09:25.787Z,4.68
2018-05-10T21:11:51.744Z,4.82
2018-05-10T21:14:19.323Z,4.80
2018-05-10T21:16:45.299Z,4.43
2018-05-10T21:19:14.413Z,4.30
2018-05-10T21:21:40.361Z,4.10
2018-05-10T21:24:09.900Z,4.37
2018-05-10T21:26:35.843Z,4.10
2018-05-10T21:29:01.838Z,4.60
2018-05-10T21:31:27.763Z,4.40
2018-05-10T21:33:53.715Z,4.60
2018-05-10T21:36:20.614Z,4.47
2018-05-10T21:38:46.594Z,3.60
2018-05-10T21:41:17.687Z,9.15
2018-05-10T21:43:43.842Z,5.18
2018-05-10T21:46:09.847Z,4.00
2018-05-10T21:48:35.829Z,3.47
2018-05-10T21:51:04.806Z,4.35
2018-05-10T21:53:30.797Z,3.83
2018-05-10T21:55:59.635Z,4.30
2018-05-10T21:58:25.568Z,4.37
2018-05-10T22:00:54.410Z,3.60
2018-05-10T22:03:20.374Z,4.00
2018-05-10T22:05:54.330Z,3.85
2018-05-10T22:08:20.786Z,3.90
2018-05-10T22:10:46.939Z,4.00
2018-05-10T22:13:12.904Z,3.83
2018-05-10T22:15:38.878Z,3.70
2018-05-10T22:18:04.856Z,3.90
2018-05-10T22:20:30.796Z,4.30
2018-05-10T22:22:56.739Z,3.70
2018-05-10T22:25:22.669Z,4.40
2018-05-10T22:27:52.173Z,4.28
2018-05-10T22:30:18.140Z,4.20
2018-05-10T22:32:45.225Z,4.10
2018-05-10T22:35:11.220Z,4.12
2018-05-10T22:37:40.805Z,3.90
2018-05-10T22:40:06.769Z,3.90
2018-05-10T22:42:32.730Z,3.80
2018-05-10T22:44:58.661Z,3.93
2018-05-10T22:47:24.610Z,3.80
2018-05-10T22:49:52.288Z,4.10
2018-05-10T22:52:18.251Z,3.40
2018-05-10T22:54:47.360Z,4.20
2018-05-10T22:57:13.316Z,3.72
2018-05-10T22:59:40.502Z,4.10
2018-05-10T23:02:06.445Z,4.28
2018-05-10T23:04:35.378Z,3.60
2018-05-10T23:07:01.307Z,3.87
2018-05-10T23:09:30.107Z,3.92
2018-05-10T23:11:56.938Z,4.20
2018-05-10T23:14:26.394Z,4.03
2018-05-10T23:16:52.317Z,4.10
2018-05-10T23:19:18.295Z,3.60
2018-05-10T23:21:44.246Z,3.70
2018-05-10T23:24:10.216Z,3.80
2018-05-10T23:26:36.839Z,3.87
2018-05-10T23:29:02.812Z,4.12
2018-05-10T23:31:32.821Z,4.10
2018-05-10T23:33:58.844Z,4.20
2018-05-10T23:36:26.524Z,3.60
2018-05-10T23:38:52.496Z,3.87
2018-05-10T23:41:20.507Z,3.90
2018-05-10T23:43:46.469Z,4.00
2018-05-10T23:46:15.415Z,4.40
2018-05-10T23:48:41.387Z,4.03
2018-05-10T23:51:10.376Z,5.50
2018-05-10T23:53:36.354Z,4.50
2018-05-10T23:56:02.284Z,4.43
2018-05-10T23:58:28.223Z,4.90
